Time;durP1;ratioP1;P1;durP2;ratioP2;P2;SDS_P1;SDS_P2;PMS_P1;PMS_P2;Temp;Humidity;BMP_temperature;BMP_pressure;BME280_temperature;BME280_humidity;BME280_pressure;Samples;Min_cycle;Max_cycle;Signal;HPM_P1;HPM_P2
2024/01/03 00:01:56;;;;;;;;;;;;;;;;;;5092776;28;20002;-52
2024/01/03 00:04:22;;;;;;;;;;;;;;;;;;5093674;28;19912;-51
2024/01/03 00:06:48;;;;;;;;;;;;;;;;;;5091926;28;19912;-52
2024/01/03 00:09:14;;;;;;;;;;;;;;;;;;5093100;28;19948;-52
2024/01/03 00:11:40;;;;;;;;;;;;;;;;;;5083509;28;19949;-56
2024/01/03 00:14:06;;;;;;;;;;;;;;;;;;5073200;28;20287;-51
2024/01/03 00:16:32;;;;;;;;;;;;;;;;;;5076682;28;19924;-54
2024/01/03 00:18:58;;;;;;;;;;;;;;;;;;5072997;28;20022;-55
2024/01/03 00:21:28;;;;;;;;;;;;;;;;;;5082824;28;19912;-54
2024/01/03 00:23:55;;;;;;;;;;;;;;;;;;5092639;28;19919;-50
2024/01/03 00:26:21;;;;;;;;;;;;;;;;;;5092962;28;19908;-51
2024/01/03 00:28:47;;;;;;;;;;;;;;;;;;5091355;28;19927;-51
2024/01/03 00:31:13;;;;;;;;;;;;;;;;;;5092991;28;20351;-50
2024/01/03 00:33:39;;;;;;;;;;;;;;;;;;5092909;28;20322;-50
2024/01/03 00:36:05;;;;;;;;;;;;;;;;;;5092520;28;19916;-48
2024/01/03 00:38:31;;;;;;;;;;;;;;;;;;5092462;28;20002;-51
2024/01/03 00:40:57;;;;;;;;;;;;;;;;;;5092661;28;19908;-51
2024/01/03 00:43:23;;;;;;;;;;;;;;;;;;5091204;28;19919;-52
2024/01/03 00:45:49;;;;;;;;;;;;;;;;;;5084524;28;19952;-49
2024/01/03 00:48:15;;;;;;;;;;;;;;;;;;5086636;28;19926;-48
2024/01/03 00:50:41;;;;;;;;;;;;;;;;;;5092148;28;20007;-50
2024/01/03 00:53:07;;;;;;;;;;;;;;;;;;5082052;28;20418;-52
2024/01/03 00:55:33;;;;;;;;;;;;;;;;;;5072618;28;19908;-51
2024/01/03 00:57:59;;;;;;;;;;;;;;;;;;5072602;28;20340;-50
2024/01/03 01:00:24;;;;;;;;;;;;;;;;;;5072185;28;19909;-49
2024/01/03 01:02:50;;;;;;;;;;;;;;;;;;5084233;28;19916;-50
2024/01/03 01:05:16;;;;;;;;;;;;;;;;;;5078219;28;19964;-51
2024/01/03 01:07:42;;;;;;;;;;;;;;;;;;5072729;28;20003;-51
2024/01/03 01:10:08;;;;;;;;;;;;;;;;;;5087905;28;19919;-49
2024/01/03 01:12:34;;;;;;;;;;;;;;;;;;5087349;28;19918;-52
2024/01/03 01:15:01;;;;;;;;;;;;;;;;;;5092555;28;19991;-49
2024/01/03 01:17:27;;;;;;;;;;;;;;;;;;5092442;28;19912;-49
2024/01/03 01:19:53;;;;;;;;;;;;;;;;;;5090303;28;19912;-50
2024/01/03 01:22:19;;;;;;;;;;;;;;;;;;5079059;28;19990;-54
2024/01/03 01:24:45;;;;;;;;;;;;;;;;;;5092602;28;19912;-55
2024/01/03 01:27:11;;;;;;;;;;;;;;;;;;5092086;28;20385;-54
2024/01/03 01:29:36;;;;;;;;;;;;;;;;;;5092066;28;19912;-54
2024/01/03 01:32:02;;;;;;;;;;;;;;;;;;5092433;28;20291;-55
2024/01/03 01:34:28;;;;;;;;;;;;;;;;;;5092367;28;20387;-54
2024/01/03 01:36:54;;;;;;;;;;;;;;;;;;5085430;28;19944;-56
2024/01/03 01:39:20;;;;;;;;;;;;;;;;;;5093525;28;19918;-57
2024/01/03 01:41:46;;;;;;;;;;;;;;;;;;5076174;28;19912;-57
2024/01/03 01:44:12;;;;;;;;;;;;;;;;;;5082916;28;19913;-56
2024/01/03 01:46:39;;;;;;;;;;;;;;;;;;5090938;28;20712;-55
2024/01/03 01:49:05;;;;;;;;;;;;;;;;;;5075855;28;19912;-56
2024/01/03 01:51:31;;;;;;;;;;;;;;;;;;5082697;28;19958;-55
2024/01/03 01:53:57;;;;;;;;;;;;;;;;;;5095139;28;19951;-56
2024/01/03 01:56:23;;;;;;;;;;;;;;;;;;5096253;28;19930;-56
2024/01/03 01:58:49;;;;;;;;;;;;;;;;;;5095813;28;20427;-55
2024/01/03 02:01:17;;;;;;;;;;;;;;;;;;5095290;28;19922;-56
2024/01/03 02:03:43;;;;;;;;;;;;;;;;;;5095569;28;19912;-56
2024/01/03 02:06:09;;;;;;;;;;;;;;;;;;5095644;28;19962;-55
2024/01/03 02:08:35;;;;;;;;;;;;;;;;;;5086214;28;19958;-55
2024/01/03 02:11:01;;;;;;;;;;;;;;;;;;5094013;28;19977;-56
2024/01/03 02:13:27;;;;;;;;;;;;;;;;;;5095833;28;20386;-56
2024/01/03 02:15:53;;;;;;;;;;;;;;;;;;5095834;28;20010;-56
2024/01/03 02:18:19;;;;;;;;;;;;;;;;;;5095901;28;19938;-54
2024/01/03 02:20:45;;;;;;;;;;;;;;;;;;5095103;28;20006;-58
2024/01/03 02:23:11;;;;;;;;;;;;;;;;;;5095332;28;19918;-55
2024/01/03 02:25:36;;;;;;;;;;;;;;;;;;5081931;28;20281;-56
2024/01/03 02:28:03;;;;;;;;;;;;;;;;;;5089254;28;19978;-56
2024/01/03 02:30:29;;;;;;;;;;;;;;;;;;5095395;28;20360;-55
2024/01/03 02:32:55;;;;;;;;;;;;;;;;;;5095238;28;19919;-51
2024/01/03 02:35:21;;;;;;;;;;;;;;;;;;5095400;28;19944;-51
2024/01/03 02:37:47;;;;;;;;;;;;;;;;;;5095075;28;19978;-52
2024/01/03 02:40:13;;;;;;;;;;;;;;;;;;5093523;28;19979;-52
2024/01/03 02:42:39;;;;;;;;;;;;;;;;;;5090481;28;19908;-52
2024/01/03 02:45:05;;;;;;;;;;;;;;;;;;5092012;28;20379;-53
2024/01/03 02:47:31;;;;;;;;;;;;;;;;;;5074657;28;19977;-51
2024/01/03 02:49:58;;;;;;;;;;;;;;;;;;5075707;28;19999;-49
2024/01/03 02:52:24;;;;;;;;;;;;;;;;;;5079497;28;19912;-51
2024/01/03 02:54:49;;;;;;;;;;;;;;;;;;5094575;28;19916;-52
2024/01/03 02:57:15;;;;;;;;;;;;;;;;;;5094382;28;19920;-52
2024/01/03 02:59:41;;;;;;;;;;;;;;;;;;5094161;28;19916;-52
2024/01/03 03:02:07;;;;;;;;;;;;;;;;;;5094184;28;20008;-52
2024/01/03 03:04:33;;;;;;;;;;;;;;;;;;5094835;28;20296;-52
2024/01/03 03:06:59;;;;;;;;;;;;;;;;;;5094677;28;19908;-49
2024/01/03 03:09:25;;;;;;;;;;;;;;;;;;5093988;28;20027;-53
2024/01/03 03:11:51;;;;;;;;;;;;;;;;;;5093378;28;19908;-51
2024/01/03 03:14:17;;;;;;;;;;;;;;;;;;5093092;28;19948;-52
2024/01/03 03:16:43;;;;;;;;;;;;;;;;;;5074331;28;19915;-52
2024/01/03 03:19:08;;;;;;;;;;;;;;;;;;5089923;28;19958;-52
2024/01/03 03:21:34;;;;;;;;;;;;;;;;;;5093921;28;19965;-50
2024/01/03 03:24:00;;;;;;;;;;;;;;;;;;5094191;28;19912;-50
2024/01/03 03:26:26;;;;;;;;;;;;;;;;;;5088788;28;20464;-52
2024/01/03 03:28:52;;;;;;;;;;;;;;;;;;5094169;28;19923;-51
2024/01/03 03:31:18;;;;;;;;;;;;;;;;;;5093565;28;20319;-51
2024/01/03 03:33:44;;;;;;;;;;;;;;;;;;5094032;28;19954;-51
2024/01/03 03:36:10;;;;;;;;;;;;;;;;;;5085903;28;19912;-51
2024/01/03 03:38:36;;;;;;;;;;;;;;;;;;5093837;28;19920;-52
2024/01/03 03:41:01;;;;;;;;;;;;;;;;;;5093691;28;19934;-53
2024/01/03 03:43:27;;;;;;;;;;;;;;;;;;5093365;28;20458;-52
2024/01/03 03:45:53;;;;;;;;;;;;;;;;;;5086256;28;20007;-50
2024/01/03 03:48:19;;;;;;;;;;;;;;;;;;5090777;28;20284;-52
2024/01/03 03:50:45;;;;;;;;;;;;;;;;;;5088335;28;19915;-51
2024/01/03 03:53:11;;;;;;;;;;;;;;;;;;5092821;28;20320;-49
2024/01/03 03:55:37;;;;;;;;;;;;;;;;;;5093902;28;20288;-51
2024/01/03 03:58:03;;;;;;;;;;;;;;;;;;5093701;28;19951;-51
2024/01/03 04:00:29;;;;;;;;;;;;;;;;;;5083139;28;19919;-48
2024/01/03 04:02:55;;;;;;;;;;;;;;;;;;5079359;28;19912;-48
2024/01/03 04:05:21;;;;;;;;;;;;;;;;;;5093565;28;19984;-49
2024/01/03 04:07:47;;;;;;;;;;;;;;;;;;5093172;28;19916;-49
2024/01/03 04:10:12;;;;;;;;;;;;;;;;;;5092138;28;20007;-50
2024/01/03 04:12:38;;;;;;;;;;;;;;;;;;5093427;28;19912;-49
2024/01/03 04:15:04;;;;;;;;;;;;;;;;;;5093544;28;20349;-50
2024/01/03 04:17:30;;;;;;;;;;;;;;;;;;5089347;28;19912;-49
2024/01/03 04:19:58;;;;;;;;;;;;;;;;;;5092677;28;20007;-50
2024/01/03 04:22:24;;;;;;;;;;;;;;;;;;5093368;28;19912;-50
2024/01/03 04:24:50;;;;;;;;;;;;;;;;;;5093529;28;20326;-49
2024/01/03 04:27:16;;;;;;;;;;;;;;;;;;5091973;28;19951;-50
2024/01/03 04:29:42;;;;;;;;;;;;;;;;;;5092855;28;19916;-51
2024/01/03 04:32:07;;;;;;;;;;;;;;;;;;5093063;28;19923;-49
2024/01/03 04:34:36;;;;;;;;;;;;;;;;;;5092638;28;19995;-48
2024/01/03 04:37:03;;;;;;;;;;;;;;;;;;5087879;28;19916;-51
2024/01/03 04:39:29;;;;;;;;;;;;;;;;;;5091535;28;20392;-49
2024/01/03 04:41:55;;;;;;;;;;;;;;;;;;5092746;28;19955;-48
2024/01/03 04:44:21;;;;;;;;;;;;;;;;;;5091585;28;20003;-50
2024/01/03 04:46:47;;;;;;;;;;;;;;;;;;5092927;28;20010;-49
2024/01/03 04:49:12;;;;;;;;;;;;;;;;;;5091959;28;19937;-49
2024/01/03 04:51:38;;;;;;;;;;;;;;;;;;5091876;28;19951;-49
2024/01/03 04:54:04;;;;;;;;;;;;;;;;;;5092539;28;19998;-48
2024/01/03 04:56:30;;;;;;;;;;;;;;;;;;5092763;28;19928;-49
2024/01/03 04:58:56;;;;;;;;;;;;;;;;;;5092452;28;20321;-51
2024/01/03 05:01:22;;;;;;;;;;;;;;;;;;5091519;28;19916;-53
2024/01/03 05:03:48;;;;;;;;;;;;;;;;;;5083743;28;19922;-50
2024/01/03 05:06:14;;;;;;;;;;;;;;;;;;5092131;28;19960;-48
2024/01/03 05:08:40;;;;;;;;;;;;;;;;;;5087936;28;19944;-48
2024/01/03 05:11:06;;;;;;;;;;;;;;;;;;5092135;28;19916;-48
2024/01/03 05:13:31;;;;;;;;;;;;;;;;;;5091275;28;19915;-49
2024/01/03 05:15:57;;;;;;;;;;;;;;;;;;5092523;28;20331;-50
2024/01/03 05:18:23;;;;;;;;;;;;;;;;;;5091067;28;20012;-50
2024/01/03 05:20:49;;;;;;;;;;;;;;;;;;5082796;28;19916;-49
2024/01/03 05:23:15;;;;;;;;;;;;;;;;;;5083358;28;19977;-51
2024/01/03 05:25:41;;;;;;;;;;;;;;;;;;5084372;28;20269;-48
2024/01/03 05:28:07;;;;;;;;;;;;;;;;;;5091103;28;19952;-49
2024/01/03 05:30:33;;;;;;;;;;;;;;;;;;5091947;28;19988;-51
2024/01/03 05:32:59;;;;;;;;;;;;;;;;;;5091835;28;19912;-50
2024/01/03 05:35:24;;;;;;;;;;;;;;;;;;5084520;28;19919;-49
2024/01/03 05:37:50;;;;;;;;;;;;;;;;;;5091482;28;19995;-49
2024/01/03 05:40:18;;;;;;;;;;;;;;;;;;5085026;28;19916;-50
2024/01/03 05:42:44;;;;;;;;;;;;;;;;;;5088031;28;19920;-50
2024/01/03 05:45:10;;;;;;;;;;;;;;;;;;5091977;28;20293;-49
2024/01/03 05:47:36;;;;;;;;;;;;;;;;;;5091454;28;20008;-49
2024/01/03 05:50:02;;;;;;;;;;;;;;;;;;5091811;28;20006;-48
2024/01/03 05:52:29;;;;;;;;;;;;;;;;;;5090636;28;19991;-49
2024/01/03 05:54:55;;;;;;;;;;;;;;;;;;5091024;28;19920;-52
2024/01/03 05:57:20;;;;;;;;;;;;;;;;;;5091672;28;19989;-49
2024/01/03 05:59:46;;;;;;;;;;;;;;;;;;5091578;28;19912;-50
2024/01/03 06:02:12;;;;;;;;;;;;;;;;;;5091501;28;20028;-51
2024/01/03 06:04:38;;;;;;;;;;;;;;;;;;5091855;28;20022;-51
2024/01/03 06:07:04;;;;;;;;;;;;;;;;;;5091345;28;19916;-51
2024/01/03 06:09:30;;;;;;;;;;;;;;;;;;5090657;28;19991;-52
2024/01/03 06:11:56;;;;;;;;;;;;;;;;;;5086456;28;20050;-48
2024/01/03 06:14:22;;;;;;;;;;;;;;;;;;5091813;28;19973;-48
2024/01/03 06:16:48;;;;;;;;;;;;;;;;;;5091366;28;19912;-50
2024/01/03 06:19:14;;;;;;;;;;;;;;;;;;5091527;28;20371;-49
2024/01/03 06:21:40;;;;;;;;;;;;;;;;;;5091243;28;19918;-47
2024/01/03 06:24:06;;;;;;;;;;;;;;;;;;5091448;28;20349;-53
2024/01/03 06:26:32;;;;;;;;;;;;;;;;;;5091395;28;19997;-51
2024/01/03 06:28:58;;;;;;;;;;;;;;;;;;5094593;28;20000;-51
2024/01/03 06:31:24;;;;;;;;;;;;;;;;;;5094054;28;20381;-51
2024/01/03 06:33:50;;;;;;;;;;;;;;;;;;5090239;28;19932;-50
2024/01/03 06:36:16;;;;;;;;;;;;;;;;;;5090134;28;20380;-51
2024/01/03 06:38:42;;;;;;;;;;;;;;;;;;5082536;28;19963;-49
2024/01/03 06:41:09;;;;;;;;;;;;;;;;;;5089063;28;19959;-51
2024/01/03 06:43:35;;;;;;;;;;;;;;;;;;5093237;28;19918;-51
2024/01/03 06:46:01;;;;;;;;;;;;;;;;;;5091790;28;19912;-50
2024/01/03 06:48:27;;;;;;;;;;;;;;;;;;5084286;28;19937;-50
2024/01/03 06:50:52;;;;;;;;;;;;;;;;;;5094172;28;19916;-49
2024/01/03 06:53:18;;;;;;;;;;;;;;;;;;5087287;28;20005;-49
2024/01/03 06:55:44;;;;;;;;;;;;;;;;;;5088735;28;19916;-51
2024/01/03 06:58:10;;;;;;;;;;;;;;;;;;5094778;28;19958;-48
2024/01/03 07:00:36;;;;;;;;;;;;;;;;;;5085949;28;20423;-49
2024/01/03 07:03:02;;;;;;;;;;;;;;;;;;5080771;28;20363;-56
2024/01/03 07:05:28;;;;;;;;;;;;;;;;;;5094392;28;19912;-48
2024/01/03 07:07:54;;;;;;;;;;;;;;;;;;5094676;28;19996;-51
2024/01/03 07:10:20;;;;;;;;;;;;;;;;;;5092962;28;19940;-51
2024/01/03 07:12:46;;;;;;;;;;;;;;;;;;5094575;28;19962;-48
2024/01/03 07:15:17;;;;;;;;;;;;;;;;;;5093951;28;19908;-51
2024/01/03 07:17:43;;;;;;;;;;;;;;;;;;5088914;28;19923;-52
2024/01/03 07:20:09;;;;;;;;;;;;;;;;;;5088040;28;20350;-52
2024/01/03 07:22:35;;;;;;;;;;;;;;;;;;5093633;28;19926;-51
2024/01/03 07:25:01;;;;;;;;;;;;;;;;;;5093797;28;19948;-52
2024/01/03 07:27:27;;;;;;;;;;;;;;;;;;5093379;28;19936;-51
2024/01/03 07:29:53;;;;;;;;;;;;;;;;;;5092003;28;19923;-50
2024/01/03 07:32:19;;;;;;;;;;;;;;;;;;5092709;28;19908;-51
2024/01/03 07:34:45;;;;;;;;;;;;;;;;;;5093195;28;19976;-49
2024/01/03 07:37:11;;;;;;;;;;;;;;;;;;5091923;28;20433;-49
2024/01/03 07:39:37;;;;;;;;;;;;;;;;;;5089948;28;20011;-49
2024/01/03 07:42:06;;;;;;;;;;;;;;;;;;5093232;28;20275;-50
2024/01/03 07:44:35;;;;;;;;;;;;;;;;;;5092795;28;19916;-49
2024/01/03 07:47:01;;;;;;;;;;;;;;;;;;5091406;28;19912;-49
2024/01/03 07:49:27;;;;;;;;;;;;;;;;;;5090726;28;19916;-49
2024/01/03 07:51:53;;;;;;;;;;;;;;;;;;5092598;28;19912;-50
2024/01/03 07:54:19;;;;;;;;;;;;;;;;;;5091933;28;19999;-52
2024/01/03 07:56:45;;;;;;;;;;;;;;;;;;5092542;28;19908;-50
2024/01/03 07:59:10;;;;;;;;;;;;;;;;;;5092552;28;20013;-50
2024/01/03 08:01:36;;;;;;;;;;;;;;;;;;5092621;28;19912;-50
2024/01/03 08:04:04;;;;;;;;;;;;;;;;;;5092804;28;19943;-49
2024/01/03 08:06:30;;;;;;;;;;;;;;;;;;5091651;28;20344;-48
2024/01/03 08:08:56;;;;;;;;;;;;;;;;;;5092479;28;19949;-52
2024/01/03 08:11:22;;;;;;;;;;;;;;;;;;5091225;28;19965;-51
2024/01/03 08:13:48;;;;;;;;;;;;;;;;;;5089664;28;20005;-51
2024/01/03 08:16:15;;;;;;;;;;;;;;;;;;5085339;28;20380;-52
2024/01/03 08:18:43;;;;;;;;;;;;;;;;;;5091508;28;20343;-49
2024/01/03 08:21:08;;;;;;;;;;;;;;;;;;5087264;28;19999;-51
2024/01/03 08:23:34;;;;;;;;;;;;;;;;;;5086554;28;20000;-53
2024/01/03 08:26:00;;;;;;;;;;;;;;;;;;5092355;28;19916;-55
2024/01/03 08:28:26;;;;;;;;;;;;;;;;;;5090959;28;20441;-54
2024/01/03 08:30:52;;;;;;;;;;;;;;;;;;5091972;28;20339;-53
2024/01/03 08:33:18;;;;;;;;;;;;;;;;;;5091854;28;19916;-48
2024/01/03 08:35:44;;;;;;;;;;;;;;;;;;5085132;28;19939;-49
2024/01/03 08:38:10;;;;;;;;;;;;;;;;;;5089420;28;19912;-51
2024/01/03 08:40:36;;;;;;;;;;;;;;;;;;5090574;28;20382;-51
2024/01/03 08:43:02;;;;;;;;;;;;;;;;;;5091248;28;19912;-52
2024/01/03 08:45:28;;;;;;;;;;;;;;;;;;5079372;28;19913;-49
2024/01/03 08:47:54;;;;;;;;;;;;;;;;;;5085893;28;19908;-52
2024/01/03 08:50:20;;;;;;;;;;;;;;;;;;5081092;28;20393;-49
2024/01/03 08:52:45;;;;;;;;;;;;;;;;;;5091562;28;20364;-52
2024/01/03 08:55:11;;;;;;;;;;;;;;;;;;5091209;28;20019;-51
2024/01/03 08:57:37;;;;;;;;;;;;;;;;;;5090618;28;20266;-49
2024/01/03 09:00:03;;;;;;;;;;;;;;;;;;5090403;28;19916;-52
2024/01/03 09:02:29;;;;;;;;;;;;;;;;;;5091309;28;20275;-51
2024/01/03 09:04:55;;;;;;;;;;;;;;;;;;5082010;28;20000;-51
2024/01/03 09:07:21;;;;;;;;;;;;;;;;;;5091315;28;19912;-51
2024/01/03 09:09:47;;;;;;;;;;;;;;;;;;5091375;28;20331;-51
2024/01/03 09:12:13;;;;;;;;;;;;;;;;;;5086641;28;19952;-50
2024/01/03 09:14:39;;;;;;;;;;;;;;;;;;5091027;28;20295;-52
2024/01/03 09:17:05;;;;;;;;;;;;;;;;;;5087478;28;19912;-51
2024/01/03 09:19:31;;;;;;;;;;;;;;;;;;5086424;28;19942;-51
2024/01/03 09:21:59;;;;;;;;;;;;;;;;;;5083031;28;19947;-51
2024/01/03 09:24:27;;;;;;;;;;;;;;;;;;5089277;28;19912;-52
2024/01/03 09:26:52;;;;;;;;;;;;;;;;;;5091597;28;19913;-49
2024/01/03 09:29:19;;;;;;;;;;;;;;;;;;5090285;28;20356;-50
2024/01/03 09:31:44;;;;;;;;;;;;;;;;;;5089420;28;20015;-52
2024/01/03 09:34:10;;;;;;;;;;;;;;;;;;5090724;28;20015;-49
2024/01/03 09:36:36;;;;;;;;;;;;;;;;;;5090246;28;19916;-50
2024/01/03 09:39:02;;;;;;;;;;;;;;;;;;5086791;28;20322;-52
2024/01/03 09:41:28;;;;;;;;;;;;;;;;;;5084181;28;20010;-48
2024/01/03 09:43:55;;;;;;;;;;;;;;;;;;5086788;28;19918;-50
2024/01/03 09:46:21;;;;;;;;;;;;;;;;;;5089434;28;19920;-51
2024/01/03 09:48:48;;;;;;;;;;;;;;;;;;5083515;28;19966;-53
2024/01/03 09:51:14;;;;;;;;;;;;;;;;;;5087729;28;19912;-53
2024/01/03 09:53:40;;;;;;;;;;;;;;;;;;5088278;28;19924;-50
2024/01/03 09:56:06;;;;;;;;;;;;;;;;;;5084509;28;19963;-52
2024/01/03 09:58:32;;;;;;;;;;;;;;;;;;5089749;28;20372;-50
2024/01/03 10:00:58;;;;;;;;;;;;;;;;;;5093145;28;19981;-50
2024/01/03 10:03:24;;;;;;;;;;;;;;;;;;5093562;28;20388;-52
2024/01/03 10:05:50;;;;;;;;;;;;;;;;;;5086562;28;19912;-52
2024/01/03 10:08:16;;;;;;;;;;;;;;;;;;5090312;28;19966;-52
2024/01/03 10:10:45;;;;;;;;;;;;;;;;;;5089951;28;20383;-50
2024/01/03 10:13:11;;;;;;;;;;;;;;;;;;5084715;28;19916;-52
2024/01/03 10:15:37;;;;;;;;;;;;;;;;;;5093666;28;19958;-53
2024/01/03 10:18:03;;;;;;;;;;;;;;;;;;5092814;28;20383;-51
2024/01/03 10:20:29;;;;;;;;;;;;;;;;;;5079459;28;20003;-51
2024/01/03 10:22:55;;;;;;;;;;;;;;;;;;5092696;28;19912;-52
2024/01/03 10:25:22;;;;;;;;;;;;;;;;;;5085041;28;19908;-51
2024/01/03 10:27:48;;;;;;;;;;;;;;;;;;5093620;28;19928;-51
2024/01/03 10:30:14;;;;;;;;;;;;;;;;;;5087980;28;19966;-53
2024/01/03 10:32:40;;;;;;;;;;;;;;;;;;5088443;28;19912;-52
2024/01/03 10:35:06;;;;;;;;;;;;;;;;;;5087596;28;20388;-51
2024/01/03 10:37:32;;;;;;;;;;;;;;;;;;5092957;28;19934;-50
2024/01/03 10:40:00;;;;;;;;;;;;;;;;;;5087835;28;20284;-50
2024/01/03 10:42:26;;;;;;;;;;;;;;;;;;5091694;28;19919;-52
2024/01/03 10:44:51;;;;;;;;;;;;;;;;;;5091028;28;19908;-50
2024/01/03 10:47:17;;;;;;;;;;;;;;;;;;5086629;28;20400;-51
2024/01/03 10:49:43;;;;;;;;;;;;;;;;;;5092946;28;20007;-49
2024/01/03 10:52:09;;;;;;;;;;;;;;;;;;5087555;28;19916;-54
2024/01/03 10:54:35;;;;;;;;;;;;;;;;;;5090784;28;19951;-53
2024/01/03 10:57:01;;;;;;;;;;;;;;;;;;5089435;28;19922;-53
2024/01/03 10:59:27;;;;;;;;;;;;;;;;;;5084190;28;19924;-51
2024/01/03 11:01:53;;;;;;;;;;;;;;;;;;5093461;28;19920;-53
2024/01/03 11:04:20;;;;;;;;;;;;;;;;;;5085934;28;19999;-53
2024/01/03 11:06:45;;;;;;;;;;;;;;;;;;5094171;28;19931;-52
2024/01/03 11:09:12;;;;;;;;;;;;;;;;;;5091938;28;19912;-52
2024/01/03 11:11:38;;;;;;;;;;;;;;;;;;5088347;28;19912;-55
2024/01/03 11:14:04;;;;;;;;;;;;;;;;;;5089616;28;19955;-54
2024/01/03 11:16:29;;;;;;;;;;;;;;;;;;5090876;28;19931;-51
2024/01/03 11:18:55;;;;;;;;;;;;;;;;;;5092338;28;19974;-52
2024/01/03 11:21:26;;;;;;;;;;;;;;;;;;5092991;28;20409;-53
2024/01/03 11:23:52;;;;;;;;;;;;;;;;;;5088819;28;19981;-51
2024/01/03 11:26:18;;;;;;;;;;;;;;;;;;5088799;28;19920;-52
2024/01/03 11:28:44;;;;;;;;;;;;;;;;;;5092671;28;19931;-51
2024/01/03 11:31:10;;;;;;;;;;;;;;;;;;5090510;28;19920;-53
2024/01/03 11:33:36;;;;;;;;;;;;;;;;;;5086230;28;19947;-53
2024/01/03 11:36:02;;;;;;;;;;;;;;;;;;5080779;28;20377;-52
2024/01/03 11:38:28;;;;;;;;;;;;;;;;;;5088887;28;19922;-53
2024/01/03 11:40:54;;;;;;;;;;;;;;;;;;5090896;28;19934;-53
2024/01/03 11:43:20;;;;;;;;;;;;;;;;;;5082882;28;19951;-53
2024/01/03 11:45:46;;;;;;;;;;;;;;;;;;5085344;28;20004;-53
2024/01/03 11:48:12;;;;;;;;;;;;;;;;;;5089120;28;20019;-53
2024/01/03 11:50:38;;;;;;;;;;;;;;;;;;5090420;28;19919;-54
2024/01/03 11:53:04;;;;;;;;;;;;;;;;;;5084351;28;20267;-53
2024/01/03 11:55:29;;;;;;;;;;;;;;;;;;5085698;28;19947;-52
2024/01/03 11:57:55;;;;;;;;;;;;;;;;;;5085322;28;20318;-50
2024/01/03 12:00:23;;;;;;;;;;;;;;;;;;5085670;28;19924;-52
2024/01/03 12:02:49;;;;;;;;;;;;;;;;;;5085256;28;20341;-57
2024/01/03 12:05:15;;;;;;;;;;;;;;;;;;5085395;28;19971;-56
2024/01/03 12:07:41;;;;;;;;;;;;;;;;;;5085194;28;20227;-55
2024/01/03 12:10:07;;;;;;;;;;;;;;;;;;5085094;28;19923;-57
2024/01/03 12:12:33;;;;;;;;;;;;;;;;;;5084515;28;20325;-57
2024/01/03 12:14:59;;;;;;;;;;;;;;;;;;5085381;28;19923;-56
2024/01/03 12:17:25;;;;;;;;;;;;;;;;;;5088384;28;19920;-56
2024/01/03 12:19:51;;;;;;;;;;;;;;;;;;5088681;28;19972;-56
2024/01/03 12:22:17;;;;;;;;;;;;;;;;;;5089885;28;19924;-57
2024/01/03 12:24:43;;;;;;;;;;;;;;;;;;5074200;28;19982;-57
2024/01/03 12:27:09;;;;;;;;;;;;;;;;;;5078768;28;19947;-56
2024/01/03 12:29:35;;;;;;;;;;;;;;;;;;5076806;28;19966;-55
2024/01/03 12:32:01;;;;;;;;;;;;;;;;;;5076186;28;19951;-52
2024/01/03 12:34:26;;;;;;;;;;;;;;;;;;5077624;28;19951;-56
2024/01/03 12:36:52;;;;;;;;;;;;;;;;;;5080953;28;19924;-56
2024/01/03 12:39:19;;;;;;;;;;;;;;;;;;5083849;28;20298;-56
2024/01/03 12:41:45;;;;;;;;;;;;;;;;;;5080297;28;19920;-57
2024/01/03 12:44:11;;;;;;;;;;;;;;;;;;5085978;28;19921;-57
2024/01/03 12:46:36;;;;;;;;;;;;;;;;;;5080968;28;20408;-55
2024/01/03 12:49:03;;;;;;;;;;;;;;;;;;5083127;28;19967;-57
2024/01/03 12:51:29;;;;;;;;;;;;;;;;;;5080405;28;19921;-55
2024/01/03 12:53:55;;;;;;;;;;;;;;;;;;5080761;28;20664;-57
2024/01/03 12:56:21;;;;;;;;;;;;;;;;;;5079572;28;20398;-57
2024/01/03 12:58:47;;;;;;;;;;;;;;;;;;5083618;28;20407;-52
2024/01/03 13:01:13;;;;;;;;;;;;;;;;;;5084135;28;19912;-56
2024/01/03 13:03:39;;;;;;;;;;;;;;;;;;5083510;28;21267;-50
2024/01/03 13:06:06;;;;;;;;;;;;;;;;;;5081865;28;19912;-54
2024/01/03 13:08:32;;;;;;;;;;;;;;;;;;5077187;28;19913;-52
2024/01/03 13:10:57;;;;;;;;;;;;;;;;;;5079112;28;19966;-54
2024/01/03 13:13:23;;;;;;;;;;;;;;;;;;5080307;28;20360;-51
2024/01/03 13:15:51;;;;;;;;;;;;;;;;;;5081226;28;19920;-50
2024/01/03 13:18:17;;;;;;;;;;;;;;;;;;5077121;28;20007;-52
2024/01/03 13:20:43;;;;;;;;;;;;;;;;;;5078503;28;20053;-53
2024/01/03 13:23:09;;;;;;;;;;;;;;;;;;5079832;28;20402;-52
2024/01/03 13:25:35;;;;;;;;;;;;;;;;;;5079194;28;19912;-50
2024/01/03 13:28:01;;;;;;;;;;;;;;;;;;5082614;28;19980;-52
2024/01/03 13:30:26;;;;;;;;;;;;;;;;;;5077406;28;19969;-51
2024/01/03 13:32:52;;;;;;;;;;;;;;;;;;5081009;28;21838;-52
2024/01/03 13:35:18;;;;;;;;;;;;;;;;;;5085322;28;20431;-49
2024/01/03 13:37:44;;;;;;;;;;;;;;;;;;5083111;28;19916;-51
2024/01/03 13:40:10;;;;;;;;;;;;;;;;;;5083446;28;19912;-51
2024/01/03 13:42:36;;;;;;;;;;;;;;;;;;5084532;28;19920;-53
2024/01/03 13:45:02;;;;;;;;;;;;;;;;;;5083945;28;19916;-52
2024/01/03 13:47:28;;;;;;;;;;;;;;;;;;5085185;28;19912;-51
2024/01/03 13:49:54;;;;;;;;;;;;;;;;;;5082595;28;19954;-49
2024/01/03 13:52:20;;;;;;;;;;;;;;;;;;5083128;28;19912;-53
2024/01/03 13:54:46;;;;;;;;;;;;;;;;;;5081656;28;19989;-49
2024/01/03 13:57:12;;;;;;;;;;;;;;;;;;5079826;28;19943;-53
2024/01/03 13:59:38;;;;;;;;;;;;;;;;;;5079857;28;20356;-50
2024/01/03 14:02:04;;;;;;;;;;;;;;;;;;5083052;28;19950;-50
2024/01/03 14:04:30;;;;;;;;;;;;;;;;;;5081739;28;19967;-51
2024/01/03 14:06:56;;;;;;;;;;;;;;;;;;5078608;28;20028;-52
2024/01/03 14:09:22;;;;;;;;;;;;;;;;;;5083175;28;20380;-52
2024/01/03 14:11:48;;;;;;;;;;;;;;;;;;5082936;28;19920;-50
2024/01/03 14:14:14;;;;;;;;;;;;;;;;;;5084415;28;19946;-53
2024/01/03 14:16:40;;;;;;;;;;;;;;;;;;5085576;28;19996;-53
2024/01/03 14:19:06;;;;;;;;;;;;;;;;;;5085825;28;19916;-52
2024/01/03 14:21:32;;;;;;;;;;;;;;;;;;5088009;28;19959;-51
2024/01/03 14:23:57;;;;;;;;;;;;;;;;;;5085863;28;20328;-55
2024/01/03 14:26:23;;;;;;;;;;;;;;;;;;5085191;28;20357;-55
2024/01/03 14:28:49;;;;;;;;;;;;;;;;;;5083954;28;19953;-56
2024/01/03 14:31:16;;;;;;;;;;;;;;;;;;5080555;28;19916;-55
2024/01/03 14:33:42;;;;;;;;;;;;;;;;;;5082783;28;20002;-56
2024/01/03 14:36:08;;;;;;;;;;;;;;;;;;5082175;28;19923;-57
2024/01/03 14:38:34;;;;;;;;;;;;;;;;;;5084774;28;20337;-56
2024/01/03 14:41:00;;;;;;;;;;;;;;;;;;5083505;28;19923;-57
2024/01/03 14:43:32;;;;;;;;;;;;;;;;;;5083105;28;19912;-56
2024/01/03 14:45:59;;;;;;;;;;;;;;;;;;5083955;28;20026;-56
2024/01/03 14:48:25;;;;;;;;;;;;;;;;;;5083515;28;19912;-57
2024/01/03 14:50:54;;;;;;;;;;;;;;;;;;5080222;28;20559;-57
2024/01/03 14:53:20;;;;;;;;;;;;;;;;;;5081000;28;19919;-56
2024/01/03 14:55:46;;;;;;;;;;;;;;;;;;5086535;28;20304;-56
2024/01/03 14:58:12;;;;;;;;;;;;;;;;;;5086532;28;20346;-56
2024/01/03 15:00:38;;;;;;;;;;;;;;;;;;5084328;28;19936;-56
2024/01/03 15:03:04;;;;;;;;;;;;;;;;;;5084017;28;19916;-56
2024/01/03 15:05:32;;;;;;;;;;;;;;;;;;5083511;28;19912;-56
2024/01/03 15:07:58;;;;;;;;;;;;;;;;;;5082196;28;20387;-57
2024/01/03 15:10:24;;;;;;;;;;;;;;;;;;5085509;28;19951;-56
2024/01/03 15:12:50;;;;;;;;;;;;;;;;;;5082990;28;20326;-56
2024/01/03 15:15:16;;;;;;;;;;;;;;;;;;5083214;28;19912;-56
2024/01/03 15:17:44;;;;;;;;;;;;;;;;;;5082434;28;19955;-56
2024/01/03 15:20:11;;;;;;;;;;;;;;;;;;5078890;28;19975;-56
2024/01/03 15:22:37;;;;;;;;;;;;;;;;;;5082524;28;20341;-50
2024/01/03 15:25:03;;;;;;;;;;;;;;;;;;5083349;28;19940;-50
2024/01/03 15:27:29;;;;;;;;;;;;;;;;;;5020836;28;1773829;-52
2024/01/03 15:29:55;;;;;;;;;;;;;;;;;;5081103;28;19963;-52
2024/01/03 15:32:21;;;;;;;;;;;;;;;;;;5084317;28;20027;-51
2024/01/03 15:34:47;;;;;;;;;;;;;;;;;;5083527;28;20288;-53
2024/01/03 15:37:13;;;;;;;;;;;;;;;;;;5080178;28;19923;-52
2024/01/03 15:39:39;;;;;;;;;;;;;;;;;;5081794;28;19926;-53
2024/01/03 15:42:10;;;;;;;;;;;;;;;;;;5084685;28;20290;-52
2024/01/03 15:44:36;;;;;;;;;;;;;;;;;;5080511;28;20288;-51
2024/01/03 15:47:02;;;;;;;;;;;;;;;;;;5080382;28;20367;-54
2024/01/03 15:49:28;;;;;;;;;;;;;;;;;;5083684;28;20012;-53
2024/01/03 15:51:54;;;;;;;;;;;;;;;;;;5083977;28;20065;-53
2024/01/03 15:54:20;;;;;;;;;;;;;;;;;;5084703;28;20326;-51
2024/01/03 15:56:46;;;;;;;;;;;;;;;;;;5082804;28;19944;-53
2024/01/03 15:59:13;;;;;;;;;;;;;;;;;;5084475;28;19924;-53
2024/01/03 16:01:39;;;;;;;;;;;;;;;;;;5088224;28;19965;-54
2024/01/03 16:04:05;;;;;;;;;;;;;;;;;;5086149;28;19954;-54
2024/01/03 16:06:31;;;;;;;;;;;;;;;;;;5088265;28;19912;-53
2024/01/03 16:08:57;;;;;;;;;;;;;;;;;;5085252;28;19970;-52
2024/01/03 16:11:24;;;;;;;;;;;;;;;;;;5084165;28;20369;-53
2024/01/03 16:13:49;;;;;;;;;;;;;;;;;;5090447;28;19912;-54
2024/01/03 16:16:15;;;;;;;;;;;;;;;;;;5089367;28;20152;-54
2024/01/03 16:18:41;;;;;;;;;;;;;;;;;;5087804;28;19912;-53
2024/01/03 16:21:07;;;;;;;;;;;;;;;;;;5085137;28;19978;-53
2024/01/03 16:23:33;;;;;;;;;;;;;;;;;;5088084;28;19908;-54
2024/01/03 16:26:00;;;;;;;;;;;;;;;;;;5093107;28;19916;-53
2024/01/03 16:28:26;;;;;;;;;;;;;;;;;;5089406;28;19959;-54
2024/01/03 16:30:52;;;;;;;;;;;;;;;;;;5091008;28;20008;-52
2024/01/03 16:33:18;;;;;;;;;;;;;;;;;;5089232;28;19996;-52
2024/01/03 16:35:44;;;;;;;;;;;;;;;;;;5083858;28;19912;-51
2024/01/03 16:38:11;;;;;;;;;;;;;;;;;;5079931;28;19963;-50